Main page
METAR-TAF:

METAR-TAF

Airports :

Samsun-Çarşamba Airport

Samsun, Turkey

latitude: 41-15-15N, longitude: 036-34-03E, elevation: 5 m

Current weather observation

The report was made 28 minutes ago, at 16:50 UTC
Wind 5 kt from the South/Southwest
Temperature 16°C
Humidity 82%
Pressure 1016 hPa
Visibility 10 km or more
Scattered clouds at a height of 3600 ft
Broken clouds at a height of 10000 ft

METAR: LTFH 161650Z 20005KT 9999 SCT036 BKN100 16/13 Q1016 RESHRA NOSIG

Time: 20:18 (17:18 UTC)

Forecast

The report was made 3 hours and 38 minutes ago, at 13:40 UTC
Forecast valid from 16 at 15 UTC to 16 at 24 UTC
Wind 9 kt from the Northwest
Visibility 10 km or more
Scattered clouds at a height of 3600 ft
Broken clouds at a height of 10000 ft
Temporary
from 16 at 15 UTC to 16 at 17 UTC
Few clouds at a height of 2300 ft, Cumulonimbus.
Broken clouds at a height of 3000 ft
thunderstorm, light rain

TAF: LTFH 161340Z 1615/1624 32009KT 9999 SCT036 BKN100 TEMPO 1615/1617 -TSRA FEW023CB BKN030

Weather observations and forecasts of more than 4000 airports (METAR and TAF reports).

The available stations are represented by yellow and red dots on the map.

Hover mouse over dot to see the name of the station.

Then click to see weather observations and forecasts.

To change the map : click on the green buttons with a black cross to zoom in, on the green button with a dash to zoom out, or on the green arrows for adjacent maps.


METAR-TAF: